Sycamore Park, Indiana
Current Conditions -  °F | °C
As of 7:53 AM on Wednesday 22 Oct 2014 (Local Time) from KHUF Reporting Station
Clear Clear  
Wind Chill:   Ceiling: Unl
Heat Index:   Visibility: 10mi
Dew Point:   Wind: 5mph
Humidity: 93%   Direction: 40°NE
Pressure: 30.3"   Gusts: NA
Location:  39.5107°N, 87.4772°W
Report Text: KHUF 221153Z 04004KT 10SM CLR 02/01 A3030 RMK AO2 SLP263 T00220011 10061 20017 53015
Loading
Personal Weather Stations






























Interactive Weather Map
Tropical Storm Tracking
New forecast layout! Learn more

10-Day Weather Forecast

Advertisements
Track Severe Weather on mobile